Time;durP1;ratioP1;P1;durP2;ratioP2;P2;SDS_P1;SDS_P2;PMS_P1;PMS_P2;Temp;Humidity;BMP_temperature;BMP_pressure;BME280_temperature;BME280_humidity;BME280_pressure;Samples;Min_cycle;Max_cycle;Signal;HPM_P1;HPM_P2
2024/02/13 00:00:26;;;;;;;;;19.50;17.00;;;;;8.67;71.04;101119.47;5043502;28;45406;-68
2024/02/13 00:02:52;;;;;;;;;22.50;19.00;;;;;8.63;71.17;101112.56;5067692;27;45423;-68
2024/02/13 00:05:18;;;;;;;;;20.75;14.25;;;;;8.63;71.19;101114.31;5038192;28;45540;-70
2024/02/13 00:07:43;;;;;;;;;16.50;12.00;;;;;8.60;71.37;101120.41;5073385;27;45462;-69
2024/02/13 00:10:10;;;;;;;;;13.50;10.75;;;;;8.58;71.34;101137.84;5069590;27;45475;-68
2024/02/13 00:12:35;;;;;;;;;14.00;11.25;;;;;8.59;71.50;101125.66;5042711;28;47100;-68
2024/02/13 00:15:01;;;;;;;;;10.00;7.00;;;;;8.53;71.78;101130.09;5054443;28;45398;-68
2024/02/13 00:17:27;;;;;;;;;11.50;9.50;;;;;8.53;71.79;101135.31;5071782;27;60554;-68
2024/02/13 00:19:53;;;;;;;;;12.25;10.75;;;;;8.52;71.71;101138.78;5036123;28;45493;-68
2024/02/13 00:22:19;;;;;;;;;10.75;7.75;;;;;8.50;71.70;101137.09;5073679;27;45477;-67
2024/02/13 00:24:45;;;;;;;;;8.50;6.25;;;;;8.49;71.79;101141.41;5077460;27;45604;-67
2024/02/13 00:27:10;;;;;;;;;15.00;14.00;;;;;8.47;71.88;101131.91;5041170;28;47096;-67
2024/02/13 00:29:35;;;;;;;;;18.00;13.00;;;;;8.46;71.75;101130.16;5045376;28;74156;-67
2024/02/13 00:32:01;;;;;;;;;22.00;20.00;;;;;8.45;72.01;101142.34;5053453;28;64012;-68
2024/02/13 00:34:26;;;;;;;;;13.25;11.50;;;;;8.46;71.96;101135.38;5073902;27;67163;-67
2024/02/13 00:36:52;;;;;;;;;11.00;9.50;;;;;8.48;72.00;101138.81;5029438;28;45323;-67
2024/02/13 00:39:18;;;;;;;;;12.00;8.00;;;;;8.47;72.04;101143.19;5044037;28;47001;-68
2024/02/13 00:41:43;;;;;;;;;10.50;5.75;;;;;8.48;72.05;101154.47;5042817;28;45435;-67
2024/02/13 00:44:09;;;;;;;;;10.00;8.75;;;;;8.47;72.05;101150.16;5079465;27;45454;-67
2024/02/13 00:46:35;;;;;;;;;14.00;9.00;;;;;8.49;72.12;101153.59;5041548;28;45522;-67
2024/02/13 00:49:02;;;;;;;;;52.50;39.50;;;;;8.52;72.06;101157.03;5045090;28;47931;-68
2024/02/13 00:51:27;;;;;;;;;19.00;13.75;;;;;8.51;71.85;101150.09;5044014;28;45561;-67
2024/02/13 00:53:53;;;;;;;;;10.25;10.00;;;;;8.56;71.73;101150.03;5044304;28;65281;-67
2024/02/13 00:56:18;;;;;;;;;6.00;6.00;;;;;8.56;71.88;101152.66;5044032;28;45755;-67
2024/02/13 00:58:46;;;;;;;;;9.50;6.00;;;;;8.55;71.54;101154.41;5076249;27;52930;-67
2024/02/13 01:01:12;;;;;;;;;9.75;5.00;;;;;8.54;71.91;101149.22;5075862;27;73300;-67
2024/02/13 01:03:38;;;;;;;;;7.75;3.75;;;;;8.52;71.85;101146.63;5040240;28;45432;-68
2024/02/13 01:06:03;;;;;;;;;5.50;4.00;;;;;8.49;71.85;101146.63;5048174;28;45365;-67
2024/02/13 01:08:29;;;;;;;;;4.00;4.00;;;;;8.51;71.89;101154.44;5045058;28;45414;-67
2024/02/13 01:10:54;;;;;;;;;5.00;4.00;;;;;8.48;72.06;101152.75;5040148;28;71788;-67
2024/02/13 01:13:20;;;;;;;;;5.00;5.00;;;;;8.49;71.82;101143.19;5047240;28;45387;-67
2024/02/13 01:15:45;;;;;;;;;8.50;4.00;;;;;8.50;71.90;101155.34;5074251;27;45377;-67
2024/02/13 01:18:11;;;;;;;;;6.25;4.50;;;;;8.48;71.83;101154.47;5043369;28;45605;-67
2024/02/13 01:20:36;;;;;;;;;5.00;4.25;;;;;8.48;72.04;101162.31;5048640;28;45429;-67
2024/02/13 01:23:02;;;;;;;;;5.75;5.50;;;;;8.46;71.85;101157.09;5044690;28;67204;-67
2024/02/13 01:25:28;;;;;;;;;7.50;5.75;;;;;8.46;71.89;101157.09;5046399;28;47103;-68
2024/02/13 01:27:55;;;;;;;;;13.00;10.25;;;;;8.46;71.89;101162.31;5040134;28;45777;-68
2024/02/13 01:30:20;;;;;;;;;13.50;10.25;;;;;8.43;72.01;101157.16;5076191;27;45920;-67
2024/02/13 01:32:48;;;;;;;;;12.50;9.00;;;;;8.43;72.25;101159.75;5047667;28;63009;-67
2024/02/13 01:35:16;;;;;;;;;17.75;12.75;;;;;8.41;72.42;101160.63;5047457;28;45455;-67
2024/02/13 01:37:41;;;;;;;;;14.25;12.00;;;;;8.37;72.70;101149.34;5040933;28;45503;-67
2024/02/13 01:40:07;;;;;;;;;17.25;12.00;;;;;8.37;72.91;101151.97;5044396;28;46151;-67
2024/02/13 01:42:41;;;;;;;;;19.00;12.00;;;;;8.38;72.72;101155.47;5041927;28;45408;-67
2024/02/13 01:45:09;;;;;;;;;12.25;11.00;;;;;8.35;72.97;101164.16;5044303;28;45376;-67
2024/02/13 01:47:35;;;;;;;;;15.50;12.75;;;;;8.32;72.82;101172.00;5041882;28;47012;-67
2024/02/13 01:50:01;;;;;;;;;18.50;14.25;;;;;8.27;72.77;101161.66;5077855;27;53704;-67
2024/02/13 01:52:27;;;;;;;;;16.00;12.50;;;;;8.22;72.95;101155.63;5072635;27;54456;-67
2024/02/13 01:54:54;;;;;;;;;16.00;12.00;;;;;8.21;72.93;101164.28;5078454;27;45510;-67
2024/02/13 01:57:19;;;;;;;;;19.75;16.75;;;;;8.22;73.38;101166.03;5069204;27;46230;-67
2024/02/13 01:59:46;;;;;;;;;22.00;13.75;;;;;8.20;73.65;101167.81;5042568;28;45775;-67
2024/02/13 02:02:11;;;;;;;;;19.00;15.75;;;;;8.18;73.60;101164.34;5035481;28;45469;-67
2024/02/13 02:04:38;;;;;;;;;19.50;14.25;;;;;8.17;73.79;101173.03;5075553;27;45496;-67
2024/02/13 02:07:04;;;;;;;;;22.00;16.75;;;;;8.14;73.96;101173.94;5041571;28;46464;-67
2024/02/13 02:09:31;;;;;;;;;18.25;11.50;;;;;8.13;73.98;101174.81;5042117;28;45321;-67
2024/02/13 02:11:57;;;;;;;;;18.75;14.00;;;;;8.13;73.93;101173.97;5040040;28;45287;-67
2024/02/13 02:14:23;;;;;;;;;18.75;18.50;;;;;8.13;74.17;101168.75;5043881;28;45786;-67
2024/02/13 02:16:49;;;;;;;;;24.50;17.75;;;;;8.12;73.97;101172.22;5038464;28;45216;-67
2024/02/13 02:19:15;;;;;;;;;25.00;16.75;;;;;8.10;74.32;101169.63;5044714;28;46079;-67
2024/02/13 02:21:41;;;;;;;;;22.25;19.25;;;;;8.09;74.11;101169.63;5043999;28;45382;-66
2024/02/13 02:24:07;;;;;;;;;24.25;19.00;;;;;8.09;74.37;101177.44;5038137;28;68860;-67
2024/02/13 02:26:32;;;;;;;;;27.25;21.50;;;;;8.05;74.15;101167.94;5077895;27;45829;-66
2024/02/13 02:28:58;;;;;;;;;26.00;19.25;;;;;8.05;74.17;101176.63;5045013;28;45556;-67
2024/02/13 02:31:23;;;;;;;;;26.00;17.00;;;;;8.03;74.56;101165.34;5042976;28;45520;-67
2024/02/13 02:33:48;;;;;;;;;21.25;17.75;;;;;8.04;74.07;101176.63;5041736;28;56781;-66
2024/02/13 02:36:14;;;;;;;;;23.00;18.00;;;;;8.01;74.26;101168.88;5037798;28;47217;-67
2024/02/13 02:38:39;;;;;;;;;19.75;17.00;;;;;7.99;74.51;101171.47;5077006;27;45783;-67
2024/02/13 02:41:06;;;;;;;;;20.25;17.75;;;;;7.93;74.65;101167.19;5042749;28;65264;-67
2024/02/13 02:43:32;;;;;;;;;24.00;21.25;;;;;7.92;74.72;101175.03;5045396;28;45457;-67
2024/02/13 02:45:58;;;;;;;;;33.00;24.75;;;;;7.86;74.76;101172.44;5039970;28;45481;-67
2024/02/13 02:48:24;;;;;;;;;20.75;18.00;;;;;7.91;74.92;101175.88;5021649;28;45808;-67
2024/02/13 02:50:49;;;;;;;;;26.25;23.00;;;;;7.87;75.00;101172.44;5069829;27;46930;-67
2024/02/13 02:53:14;;;;;;;;;33.75;24.75;;;;;7.85;74.92;101176.81;5037811;28;51453;-67
2024/02/13 02:55:40;;;;;;;;;33.00;22.00;;;;;7.85;75.16;101182.03;5046688;28;60653;-66
2024/02/13 02:58:08;;;;;;;;;31.75;22.75;;;;;7.86;75.20;101185.47;5039626;28;45871;-67
2024/02/13 03:00:35;;;;;;;;;28.00;21.00;;;;;7.89;75.47;101180.25;5039669;28;45439;-66
2024/02/13 03:03:02;;;;;;;;;26.25;19.50;;;;;7.90;75.38;101182.84;5073500;27;46079;-67
2024/02/13 03:05:28;;;;;;;;;20.50;20.50;;;;;7.92;75.04;101182.84;5071358;27;46295;-66
2024/02/13 03:07:54;;;;;;;;;25.00;18.00;;;;;7.95;75.25;101180.19;5037949;28;45771;-66
2024/02/13 03:10:20;;;;;;;;;24.25;17.50;;;;;7.96;75.24;101179.31;5039858;28;45292;-66
2024/02/13 03:12:46;;;;;;;;;19.25;17.75;;;;;7.97;74.87;101183.66;5044684;28;45553;-67
2024/02/13 03:15:12;;;;;;;;;24.25;19.00;;;;;7.96;75.47;101182.78;5043691;28;46012;-67
2024/02/13 03:17:38;;;;;;;;;17.00;12.00;;;;;7.99;75.33;101174.94;5037160;28;45757;-67
2024/02/13 03:20:04;;;;;;;;;22.25;18.00;;;;;8.06;75.57;101182.72;5075361;27;45510;-67
2024/02/13 03:22:35;;;;;;;;;21.75;17.50;;;;;8.10;75.32;101180.06;5047059;28;45605;-66
2024/02/13 03:25:01;;;;;;;;;23.25;16.25;;;;;8.14;75.47;101170.47;5049939;28;45641;-66
2024/02/13 03:27:26;;;;;;;;;20.50;16.50;;;;;8.22;75.30;101159.97;5042615;28;45501;-66
2024/02/13 03:29:51;;;;;;;;;20.75;18.00;;;;;8.23;75.52;101170.34;5075107;27;69197;-67
2024/02/13 03:32:17;;;;;;;;;18.25;16.50;;;;;8.30;75.05;101165.94;5072560;27;72118;-66
2024/02/13 03:34:42;;;;;;;;;18.00;17.50;;;;;8.32;75.28;101167.69;5042157;28;46484;-67
2024/02/13 03:37:08;;;;;;;;;18.25;13.50;;;;;8.37;75.24;101165.00;5037571;28;60307;-67
2024/02/13 03:39:33;;;;;;;;;22.00;14.25;;;;;8.44;74.85;101169.31;5053671;28;47335;-67
2024/02/13 03:41:59;;;;;;;;;19.00;16.50;;;;;8.49;74.75;101169.25;5040695;28;74262;-66
2024/02/13 03:44:25;;;;;;;;;20.75;16.25;;;;;8.52;74.69;101164.00;5070253;27;45444;-66
2024/02/13 03:46:51;;;;;;;;;16.50;14.25;;;;;8.53;74.44;101161.41;5044928;28;45412;-66
2024/02/13 03:49:16;;;;;;;;;24.25;17.00;;;;;8.59;74.62;101159.56;5036690;28;45392;-66
2024/02/13 03:51:42;;;;;;;;;18.75;15.50;;;;;8.60;74.34;101156.94;5075118;27;73114;-66
2024/02/13 03:54:08;;;;;;;;;17.00;15.25;;;;;8.64;74.33;101156.03;5071208;27;45610;-66
2024/02/13 03:56:37;;;;;;;;;19.75;16.25;;;;;8.67;74.33;101155.13;5071835;27;45791;-66
2024/02/13 03:59:05;;;;;;;;;21.50;14.50;;;;;8.69;74.24;101154.25;5043480;28;45381;-67
2024/02/13 04:01:31;;;;;;;;;15.50;13.50;;;;;8.73;74.25;101148.09;5080176;27;45537;-66
2024/02/13 04:03:56;;;;;;;;;15.75;15.00;;;;;8.76;74.08;101141.09;5052705;28;55028;-66
2024/02/13 04:06:21;;;;;;;;;19.00;15.25;;;;;8.80;73.82;101141.06;5049731;28;70373;-66
2024/02/13 04:08:47;;;;;;;;;16.00;12.25;;;;;8.82;74.01;101144.50;5054834;28;65140;-65
2024/02/13 04:11:13;;;;;;;;;17.75;15.25;;;;;8.84;73.83;101152.31;5053294;28;45422;-66
2024/02/13 04:13:39;;;;;;;;;18.50;11.75;;;;;8.86;73.86;101151.41;5080414;27;45530;-65
2024/02/13 04:16:07;;;;;;;;;20.25;17.00;;;;;8.89;74.04;101153.13;5058171;28;45825;-66
2024/02/13 04:18:37;;;;;;;;;16.50;13.50;;;;;8.91;73.65;101157.44;5056393;28;45504;-65
2024/02/13 04:21:02;;;;;;;;;18.25;12.00;;;;;8.93;73.76;101158.25;5050884;28;45475;-65
2024/02/13 04:23:28;;;;;;;;;13.75;13.25;;;;;8.97;73.58;101160.84;5081450;27;46622;-66
2024/02/13 04:25:54;;;;;;;;;19.50;15.25;;;;;8.97;73.07;101158.22;5051936;28;45173;-66
2024/02/13 04:28:21;;;;;;;;;18.00;13.25;;;;;8.98;73.66;101159.94;5080551;27;45521;-66
2024/02/13 04:30:47;;;;;;;;;20.75;14.75;;;;;8.98;73.75;101154.72;5066434;28;45577;-66
2024/02/13 04:33:12;;;;;;;;;18.00;15.00;;;;;9.03;73.75;101161.63;5092389;27;45934;-66
2024/02/13 04:35:38;;;;;;;;;19.75;16.50;;;;;9.02;73.61;101153.81;5045565;28;45477;-66
2024/02/13 04:38:05;;;;;;;;;19.75;18.75;;;;;9.05;73.31;101167.69;5076875;27;45465;-66
2024/02/13 04:40:32;;;;;;;;;23.75;20.75;;;;;9.05;73.32;101159.84;5050218;28;45303;-67
2024/02/13 04:42:57;;;;;;;;;19.75;19.25;;;;;9.06;73.50;101165.94;5056568;28;46032;-67
2024/02/13 04:45:23;;;;;;;;;23.50;18.00;;;;;9.06;73.70;101173.75;5051984;28;69455;-66
2024/02/13 04:47:48;;;;;;;;;31.25;23.75;;;;;9.03;73.35;101169.47;5051074;28;65937;-64
2024/02/13 04:50:14;;;;;;;;;30.25;25.50;;;;;9.02;73.59;101166.88;5052001;28;64471;-65
2024/02/13 04:52:39;;;;;;;;;32.25;23.25;;;;;9.01;73.51;101175.56;5051753;28;45397;-66
2024/02/13 04:55:05;;;;;;;;;29.25;25.25;;;;;8.98;73.63;101175.59;5046842;28;45370;-65
2024/02/13 04:57:30;;;;;;;;;29.00;23.50;;;;;8.97;73.71;101172.13;5047276;28;45573;-66
2024/02/13 04:59:57;;;;;;;;;28.50;23.75;;;;;8.97;73.61;101179.97;5095050;27;45383;-66
2024/02/13 05:02:24;;;;;;;;;31.25;24.75;;;;;8.97;73.36;101189.56;5049605;28;45501;-66
2024/02/13 05:07:35;;;;;;;;;27.25;25.00;;;;;8.92;73.29;101187.00;5048541;28;45323;-66
2024/02/13 05:10:02;;;;;;;;;30.50;20.50;;;;;8.91;73.40;101193.13;5053122;28;45478;-66
2024/02/13 05:12:27;;;;;;;;;29.50;22.75;;;;;8.88;73.66;101190.53;5075586;27;45904;-66
2024/02/13 05:14:53;;;;;;;;;27.75;23.50;;;;;8.86;73.49;101185.34;5042717;28;45357;-66
2024/02/13 05:17:20;;;;;;;;;35.00;25.75;;;;;8.84;73.40;101187.09;5075068;27;47168;-66
2024/02/13 05:19:45;;;;;;;;;31.25;26.00;;;;;8.83;73.45;101187.13;5042818;28;45280;-66
2024/02/13 05:22:10;;;;;;;;;32.50;26.00;;;;;8.80;73.31;101187.16;5050087;28;45674;-66
2024/02/13 05:24:38;;;;;;;;;27.00;22.75;;;;;8.78;73.52;101194.13;5046034;28;45503;-66
2024/02/13 05:27:07;;;;;;;;;22.25;18.75;;;;;8.76;73.63;101199.38;5028142;28;45459;-66
2024/02/13 05:29:39;;;;;;;;;29.25;22.75;;;;;8.78;73.69;101194.13;5042756;28;45521;-66
2024/02/13 05:32:05;;;;;;;;;28.75;23.25;;;;;8.76;73.80;101191.53;5078017;27;46183;-66
2024/02/13 05:34:31;;;;;;;;;33.25;23.75;;;;;8.76;73.51;101188.06;5049331;28;46019;-64
2024/02/13 05:36:59;;;;;;;;;31.25;24.75;;;;;8.76;73.68;101190.69;5042990;28;45552;-66
2024/02/13 05:39:25;;;;;;;;;27.25;23.00;;;;;8.71;73.63;101182.91;5046807;28;45574;-65
2024/02/13 05:41:50;;;;;;;;;21.50;18.00;;;;;8.73;73.66;101184.63;5044926;28;46135;-65
2024/02/13 05:44:16;;;;;;;;;33.25;27.00;;;;;8.74;73.69;101188.09;5048635;28;45367;-66
2024/02/13 05:46:42;;;;;;;;;26.50;24.25;;;;;8.74;73.64;101188.09;5072173;27;45504;-65
2024/02/13 05:49:08;;;;;;;;;28.75;25.25;;;;;8.74;73.52;101185.47;5049795;28;45465;-65
2024/02/13 05:51:34;;;;;;;;;29.75;22.50;;;;;8.71;74.01;101181.19;5046320;28;45553;-66
2024/02/13 05:54:04;;;;;;;;;28.50;23.25;;;;;8.72;73.96;101184.63;5044949;28;45402;-65
2024/02/13 05:56:30;;;;;;;;;20.50;16.75;;;;;8.70;73.77;101176.81;5056458;28;46653;-69
2024/02/13 05:58:57;;;;;;;;;22.75;22.00;;;;;8.75;74.24;101179.41;5075277;27;45351;-66
2024/02/13 06:01:23;;;;;;;;;33.00;22.25;;;;;8.74;74.05;101178.50;5074920;27;45508;-67
2024/02/13 06:03:50;;;;;;;;;24.75;22.25;;;;;8.74;74.22;101175.03;5042858;28;45440;-67
2024/02/13 06:06:15;;;;;;;;;32.25;28.25;;;;;8.74;73.85;101172.44;5043027;28;45486;-66
2024/02/13 06:08:41;;;;;;;;;33.00;25.00;;;;;8.72;73.85;101184.63;5046206;28;45599;-67
2024/02/13 06:11:06;;;;;;;;;19.00;17.25;;;;;8.67;74.05;101184.69;5038492;28;73758;-66
2024/02/13 06:13:33;;;;;;;;;23.75;20.00;;;;;8.66;73.88;101179.50;5041861;28;55057;-65
2024/02/13 06:15:58;;;;;;;;;22.75;18.75;;;;;8.60;73.97;101179.56;5041468;28;45372;-66
2024/02/13 06:18:25;;;;;;;;;27.50;18.50;;;;;8.58;73.93;101173.50;5076729;27;45540;-65
2024/02/13 06:20:50;;;;;;;;;24.75;16.50;;;;;8.51;74.07;101170.94;5041897;28;45394;-66
2024/02/13 06:23:15;;;;;;;;;21.50;17.50;;;;;8.47;74.22;101176.25;5038101;28;70020;-65
2024/02/13 06:25:41;;;;;;;;;20.75;19.00;;;;;8.42;74.52;101170.19;5039954;28;53092;-66
2024/02/13 06:28:06;;;;;;;;;19.75;16.75;;;;;8.37;74.52;101183.25;5047488;28;45350;-66
2024/02/13 06:30:32;;;;;;;;;20.50;17.75;;;;;8.33;74.91;101187.63;5044699;28;45972;-65
2024/02/13 06:32:58;;;;;;;;;20.50;18.00;;;;;8.29;75.01;101185.09;5072528;28;46008;-65
2024/02/13 06:35:23;;;;;;;;;23.00;18.25;;;;;8.30;75.06;101192.03;5040467;27;45398;-66
2024/02/13 06:37:49;;;;;;;;;18.75;16.00;;;;;8.27;75.24;101187.72;5050290;28;73264;-65
2024/02/13 06:40:14;;;;;;;;;18.00;16.75;;;;;8.26;75.02;101201.63;5041886;28;46853;-66
2024/02/13 06:42:40;;;;;;;;;18.75;17.75;;;;;8.23;75.35;101203.41;5049480;28;45423;-66
2024/02/13 06:45:07;;;;;;;;;13.50;12.00;;;;;8.21;75.33;101197.34;5059561;28;51861;-66
2024/02/13 06:47:32;;;;;;;;;20.00;15.75;;;;;8.17;75.52;101199.97;5045534;28;45664;-65
2024/02/13 06:50:00;;;;;;;;;17.25;15.75;;;;;8.14;75.60;101196.53;5039585;28;75416;-67
2024/02/13 06:52:25;;;;;;;;;18.75;16.00;;;;;8.13;75.45;101207.84;5046534;28;45313;-69
2024/02/13 06:54:50;;;;;;;;;16.00;15.00;;;;;8.14;75.77;101215.66;5044265;28;55643;-67
2024/02/13 06:57:16;;;;;;;;;16.25;15.75;;;;;8.15;75.70;101224.34;5039637;28;71714;-64
2024/02/13 06:59:41;;;;;;;;;22.75;17.75;;;;;8.13;75.91;101232.16;5039493;28;75770;-70
2024/02/13 07:02:07;;;;;;;;;18.50;15.50;;;;;8.12;75.68;101229.56;5057166;28;45446;-72
2024/02/13 07:04:32;;;;;;;;;19.00;17.00;;;;;8.09;75.97;101225.25;5038125;28;45534;-66
2024/02/13 07:06:58;;;;;;;;;17.25;12.50;;;;;8.08;75.85;101227.88;5072799;27;73470;-69
2024/02/13 07:09:23;;;;;;;;;19.50;14.50;;;;;8.05;75.97;101222.69;5039079;28;45972;-72
2024/02/13 07:11:50;;;;;;;;;23.75;16.00;;;;;8.01;76.21;101215.78;5043902;28;73190;-71
2024/02/13 07:14:16;;;;;;;;;24.75;22.50;;;;;8.00;76.23;101225.31;5044628;28;45440;-69
2024/02/13 07:16:43;;;;;;;;;47.75;34.25;;;;;7.90;76.31;101215.88;5058335;28;45588;-75
2024/02/13 07:19:09;;;;;;;;;25.25;22.25;;;;;7.96;76.33;101232.28;5051090;28;45954;-69
2024/02/13 07:21:35;;;;;;;;;19.50;15.25;;;;;7.96;76.46;101229.69;5046499;28;45438;-69
2024/02/13 07:24:00;;;;;;;;;18.75;17.00;;;;;8.01;76.42;101242.69;5050920;28;45477;-67
2024/02/13 07:26:26;;;;;;;;;17.50;13.25;;;;;8.06;76.77;101240.06;5047472;28;45442;-70
2024/02/13 07:28:51;;;;;;;;;24.00;18.50;;;;;8.01;76.88;101241.84;5044415;28;75268;-68
2024/02/13 07:31:19;;;;;;;;;24.25;20.75;;;;;8.05;77.03;101251.34;5059419;28;45401;-66
2024/02/13 07:33:48;;;;;;;;;20.00;16.50;;;;;8.05;76.79;101246.13;5038967;28;45345;-67
2024/02/13 07:36:13;;;;;;;;;27.25;20.00;;;;;8.05;77.06;101253.97;5039091;28;45190;-70
2024/02/13 07:38:39;;;;;;;;;23.00;16.75;;;;;8.09;76.93;101255.66;5039877;28;46060;-68
2024/02/13 07:41:06;;;;;;;;;22.75;19.00;;;;;8.21;76.81;101247.72;5042689;28;45379;-67
2024/02/13 07:43:32;;;;;;;;;20.75;19.00;;;;;8.26;76.85;101252.91;5039255;28;45753;-67
2024/02/13 07:45:57;;;;;;;;;23.75;18.75;;;;;8.33;76.62;101259.81;5049963;28;45532;-68
2024/02/13 07:48:23;;;;;;;;;26.75;19.25;;;;;8.40;76.61;101260.63;5037461;28;45442;-66
2024/02/13 07:50:48;;;;;;;;;16.50;14.25;;;;;8.44;76.09;101267.56;5045443;28;46195;-65
2024/02/13 07:53:13;;;;;;;;;20.25;19.00;;;;;8.48;76.11;101269.25;5048657;28;45406;-65
2024/02/13 07:55:39;;;;;;;;;20.75;17.00;;;;;8.54;76.00;101270.06;5040516;28;45363;-65
2024/02/13 07:58:04;;;;;;;;;19.75;16.25;;;;;8.57;75.94;101274.41;5040249;28;58253;-67
2024/02/13 08:00:33;;;;;;;;;19.50;16.00;;;;;8.62;75.32;101277.78;5038453;28;45414;-72
2024/02/13 08:02:59;;;;;;;;;22.75;17.75;;;;;8.59;75.80;101282.19;5040412;28;45527;-67
2024/02/13 08:05:24;;;;;;;;;18.75;11.25;;;;;8.63;75.64;101284.75;5041544;28;45247;-72
2024/02/13 08:07:50;;;;;;;;;22.75;16.75;;;;;8.71;75.03;101284.66;5048699;28;45327;-67
2024/02/13 08:10:15;;;;;;;;;24.00;18.00;;;;;8.70;75.03;101283.81;5043099;28;47669;-67
2024/02/13 08:12:40;;;;;;;;;22.00;17.75;;;;;8.77;75.08;101288.97;5040398;28;66019;-67
2024/02/13 08:15:07;;;;;;;;;29.25;19.25;;;;;8.71;75.05;101275.13;5065779;27;73266;-66
2024/02/13 08:17:33;;;;;;;;;23.75;18.00;;;;;8.82;75.01;101294.97;5038724;28;45296;-66
2024/02/13 08:20:04;;;;;;;;;25.50;20.25;;;;;8.91;74.56;101294.91;5042302;28;45322;-67
2024/02/13 08:22:29;;;;;;;;;24.25;20.75;;;;;8.92;74.77;101288.78;5085819;27;45357;-67
2024/02/13 08:24:55;;;;;;;;;19.25;15.75;;;;;9.00;74.51;101297.41;5080409;27;45476;-68
2024/02/13 08:27:20;;;;;;;;;22.00;18.75;;;;;9.01;74.44;101293.03;5055329;28;63358;-68
2024/02/13 08:29:45;;;;;;;;;21.00;14.25;;;;;9.05;74.17;101290.38;5047183;28;59312;-67
2024/02/13 08:32:11;;;;;;;;;24.00;17.50;;;;;9.09;74.34;101299.06;5053560;28;45406;-67
2024/02/13 08:34:37;;;;;;;;;17.50;16.00;;;;;9.12;73.77;101299.03;5038775;28;72606;-67
2024/02/13 08:37:03;;;;;;;;;26.00;20.00;;;;;9.10;74.10;101309.47;5046219;28;47553;-67
2024/02/13 08:39:29;;;;;;;;;25.25;18.75;;;;;9.11;74.20;101298.13;5051398;28;45477;-68
2024/02/13 08:41:54;;;;;;;;;25.50;19.00;;;;;9.12;74.02;101304.25;5048740;28;45292;-68
2024/02/13 08:44:21;;;;;;;;;20.75;18.75;;;;;9.13;74.14;101292.91;5080571;27;45446;-68
2024/02/13 08:46:46;;;;;;;;;32.25;20.50;;;;;9.26;74.20;101301.44;5054279;28;45499;-67
2024/02/13 08:49:12;;;;;;;;;22.00;16.75;;;;;9.32;73.65;101304.00;5046821;28;45442;-67
2024/02/13 08:51:37;;;;;;;;;23.00;17.50;;;;;9.39;73.71;101304.78;5043978;28;45366;-67
2024/02/13 08:54:03;;;;;;;;;18.50;17.00;;;;;9.37;74.01;101301.34;5042206;28;45362;-67
2024/02/13 08:56:28;;;;;;;;;35.25;19.25;;;;;9.48;73.51;101302.03;5041823;28;46659;-67
2024/02/13 08:58:54;;;;;;;;;24.00;20.25;;;;;9.48;73.57;101308.13;5041963;28;45285;-67
2024/02/13 09:01:20;;;;;;;;;23.00;17.00;;;;;9.57;73.26;101301.91;5041911;28;45379;-67
2024/02/13 09:03:47;;;;;;;;;23.50;22.00;;;;;9.65;73.05;101299.19;5074390;28;45376;-67
2024/02/13 09:06:13;;;;;;;;;21.50;19.50;;;;;9.64;73.18;101298.34;5041100;28;46229;-68
2024/02/13 09:08:41;;;;;;;;;19.00;16.50;;;;;9.71;73.15;101303.50;5057137;28;45408;-66
2024/02/13 09:11:06;;;;;;;;;29.00;20.50;;;;;9.82;72.59;101298.97;5045183;28;45277;-68
2024/02/13 09:13:31;;;;;;;;;18.50;16.00;;;;;9.88;72.66;101296.25;5039670;28;68860;-68
2024/02/13 09:15:57;;;;;;;;;19.75;18.25;;;;;9.92;72.55;101297.09;5039618;28;62328;-68
2024/02/13 09:18:23;;;;;;;;;21.75;15.75;;;;;9.94;72.07;101297.91;5041670;28;45841;-68
2024/02/13 09:20:49;;;;;;;;;24.75;19.50;;;;;9.93;72.27;101291.81;5040602;28;69270;-68
2024/02/13 09:23:18;;;;;;;;;64.00;46.75;;;;;9.96;72.19;101293.53;5041883;28;45249;-68
2024/02/13 09:25:49;;;;;;;;;34.75;27.75;;;;;9.93;72.10;101297.03;5035172;28;45447;-67
2024/02/13 09:28:14;;;;;;;;;29.50;22.75;;;;;9.89;72.32;101298.84;5056745;28;45443;-68
2024/02/13 09:30:39;;;;;;;;;21.00;19.00;;;;;9.89;72.32;101296.22;5041568;28;45241;-67
2024/02/13 09:33:05;;;;;;;;;24.75;20.00;;;;;9.89;72.04;101301.44;5035490;28;45315;-67
2024/02/13 09:35:30;;;;;;;;;24.75;20.00;;;;;9.97;72.46;101309.19;5041565;28;45471;-68
2024/02/13 09:37:55;;;;;;;;;25.00;18.75;;;;;10.02;72.51;101303.88;5041235;28;45359;-67
2024/02/13 09:40:27;;;;;;;;;24.25;20.00;;;;;10.05;72.44;101296.00;5045752;28;48338;-68
2024/02/13 09:42:52;;;;;;;;;26.00;23.25;;;;;10.12;71.79;101299.38;5041311;28;45230;-67
2024/02/13 09:45:18;;;;;;;;;24.75;22.25;;;;;10.14;72.14;101293.22;5049301;28;74428;-68
2024/02/13 09:47:43;;;;;;;;;28.25;23.50;;;;;10.19;71.70;101301.00;5039545;28;45269;-66
2024/02/13 09:50:14;;;;;;;;;25.50;18.50;;;;;10.25;71.69;101290.44;5073373;27;45375;-67
2024/02/13 09:52:54;;;;;;;;;26.00;21.00;;;;;10.21;71.37;101288.75;5041019;28;45525;-67
2024/02/13 09:55:21;;;;;;;;;29.50;22.75;;;;;10.13;71.58;101291.50;5041349;28;45402;-67
2024/02/13 09:57:48;;;;;;;;;31.25;22.50;;;;;10.06;71.67;101298.59;5039952;28;45411;-67
2024/02/13 10:00:18;;;;;;;;;27.25;22.75;;;;;10.04;71.58;101304.75;5039999;28;45308;-67
2024/02/13 10:02:44;;;;;;;;;35.00;25.00;;;;;10.08;71.80;101298.56;5073009;27;45497;-68
2024/02/13 10:05:10;;;;;;;;;30.75;26.50;;;;;10.17;72.20;101293.19;5040817;28;45636;-68
2024/02/13 10:07:40;;;;;;;;;27.00;23.25;;;;;10.30;71.77;101291.22;5040752;28;45374;-69
2024/02/13 10:10:12;;;;;;;;;25.75;23.00;;;;;10.35;71.56;101299.03;5041098;28;45526;-66
2024/02/13 10:12:54;;;;;;;;;29.00;22.00;;;;;10.40;71.31;101303.28;5039459;28;45356;-67
2024/02/13 10:15:24;;;;;;;;;32.75;31.00;;;;;10.48;71.06;101297.91;5039218;28;47036;-67
2024/02/13 10:17:49;;;;;;;;;31.50;27.00;;;;;10.55;71.07;101309.13;5041321;28;45451;-68
2024/02/13 10:20:19;;;;;;;;;35.75;30.50;;;;;10.61;71.12;101309.06;5040963;28;45331;-68
2024/02/13 10:22:46;;;;;;;;;37.50;30.25;;;;;10.64;70.76;101311.59;5039413;28;45430;-68
2024/02/13 10:25:12;;;;;;;;;36.75;28.50;;;;;10.72;70.66;101312.31;5072826;28;45441;-68
2024/02/13 10:27:37;;;;;;;;;30.25;22.00;;;;;10.76;70.52;101300.91;5038765;28;46043;-67
2024/02/13 10:30:06;;;;;;;;;36.75;28.75;;;;;10.89;70.49;101303.28;5039714;28;69384;-68
2024/02/13 10:32:34;;;;;;;;;33.50;27.25;;;;;11.01;70.15;101303.94;5072170;27;45320;-67
2024/02/13 10:35:04;;;;;;;;;33.50;26.75;;;;;11.14;69.82;101306.31;5074885;28;46353;-67
2024/02/13 10:37:30;;;;;;;;;41.00;33.00;;;;;11.26;69.75;101302.56;5040532;28;45848;-67
2024/02/13 10:39:58;;;;;;;;;40.00;31.50;;;;;11.40;69.59;101296.16;5045065;28;45346;-67
2024/02/13 10:42:26;;;;;;;;;33.00;27.75;;;;;11.77;69.37;101302.31;5043836;28;46795;-67
2024/02/13 10:44:52;;;;;;;;;29.25;26.50;;;;;12.29;69.13;101306.34;5072104;27;45475;-67
2024/02/13 10:47:19;;;;;;;;;28.00;23.00;;;;;12.73;67.73;101300.88;5038796;28;45393;-67
2024/02/13 10:49:53;;;;;;;;;32.25;26.00;;;;;13.23;66.61;101303.84;5038802;28;45460;-68
2024/02/13 10:52:20;;;;;;;;;30.75;24.75;;;;;13.29;65.41;101302.78;5040602;28;45316;-67
2024/02/13 10:54:48;;;;;;;;;22.00;19.00;;;;;13.13;64.49;101294.50;5039770;28;45383;-68
2024/02/13 10:57:17;;;;;;;;;29.00;23.50;;;;;12.90;64.85;101295.13;5038637;28;45322;-68
2024/02/13 10:59:46;;;;;;;;;25.25;23.50;;;;;12.69;64.41;101297.44;5039068;28;45438;-68
2024/02/13 11:02:14;;;;;;;;;26.50;23.25;;;;;12.58;64.92;101294.25;5038604;28;45297;-68
2024/02/13 11:04:43;;;;;;;;;34.50;24.25;;;;;12.49;64.97;101286.63;5040231;28;45359;-68
2024/02/13 11:07:11;;;;;;;;;25.75;20.50;;;;;12.44;64.68;101291.13;5055267;28;45391;-69
2024/02/13 11:09:37;;;;;;;;;27.25;22.50;;;;;12.39;64.72;101285.97;5072849;27;45524;-68
2024/02/13 11:12:04;;;;;;;;;27.50;20.75;;;;;12.35;64.58;101282.56;5038306;28;45297;-68
2024/02/13 11:14:30;;;;;;;;;26.00;20.00;;;;;12.33;64.96;101284.38;5038639;28;45639;-68